Jacksonville, Oregon
Current Conditions -  °F | °C
As of 9:53 PM on Tuesday 21 Oct 2014 (Local Time) from KMFR Reporting Station
Light Rain Light Rain  
Wind Chill: 55°   Ceiling: 6500
Heat Index: 55°   Visibility: 10mi
Dew Point: 47°   Wind: 0mph
Humidity: 74%   Direction: NA
Pressure: 30"   Gusts: NA
Location:  42.31°N, 122.97°W
Report Text: KMFR 220453Z AUTO 00000KT 10SM -RA BKN065 OVC080 13/08 A3000 RMK AO2 RAB17 SLP157 P0000 T01280083
Loading
Personal Weather Stations






























Interactive Weather Map
Tropical Storm Tracking
New forecast layout! Learn more

10-Day Weather Forecast

Advertisements
Track Severe Weather on mobile